createdAt,value
2023-07-24T00:00:23.607Z,99466.97
2023-07-24T00:02:51.731Z,99463.41
2023-07-24T00:05:21.093Z,99455.44
2023-07-24T00:07:49.021Z,99454.81
2023-07-24T00:10:16.874Z,99460.69
2023-07-24T00:12:44.878Z,99466.78
2023-07-24T00:15:13.122Z,99474.66
2023-07-24T00:17:41.295Z,99477.47
2023-07-24T00:20:10.000Z,99471.59
2023-07-24T00:22:39.533Z,99475.19
2023-07-24T00:25:07.950Z,99482.31
2023-07-24T00:27:36.496Z,99482.50
2023-07-24T00:30:04.769Z,99487.88
2023-07-24T00:32:32.790Z,99483.78
2023-07-24T00:35:00.903Z,99479.59
2023-07-24T00:37:28.808Z,99477.09
2023-07-24T00:39:58.174Z,99481.59
2023-07-24T00:42:27.269Z,99486.13
2023-07-24T00:44:55.303Z,99488.75
2023-07-24T00:47:24.784Z,99481.06
2023-07-24T00:49:52.717Z,99489.97
2023-07-24T00:52:20.989Z,99482.50
2023-07-24T00:54:49.468Z,99479.16
2023-07-24T00:57:19.255Z,99482.81
2023-07-24T00:59:47.505Z,99478.59
2023-07-24T01:02:15.484Z,99482.28
2023-07-24T01:04:43.583Z,99482.63
2023-07-24T01:07:11.585Z,99482.50
2023-07-24T01:09:39.638Z,99489.41
2023-07-24T01:12:20.257Z,99492.78
2023-07-24T01:14:54.044Z,99478.91
2023-07-24T01:17:28.269Z,99484.72
2023-07-24T01:20:00.063Z,99494.13
2023-07-24T01:22:40.655Z,99485.34
2023-07-24T01:25:13.574Z,99492.97
2023-07-24T01:27:47.468Z,99491.84
2023-07-24T01:30:20.223Z,99490.06
2023-07-24T01:32:48.297Z,99486.69
2023-07-24T01:35:16.594Z,99491.22
2023-07-24T01:37:45.582Z,99485.03
2023-07-24T01:40:14.748Z,99485.69
2023-07-24T01:42:43.423Z,99485.56
2023-07-24T01:45:13.572Z,99481.06
2023-07-24T01:47:41.624Z,99482.94
2023-07-24T01:50:10.487Z,99477.69
2023-07-24T01:52:38.837Z,99485.69
2023-07-24T01:55:07.843Z,99479.56
2023-07-24T01:57:35.900Z,99477.69
2023-07-24T02:00:03.976Z,99471.69
2023-07-24T02:02:33.372Z,99473.50
2023-07-24T02:05:01.274Z,99468.16
2023-07-24T02:07:29.256Z,99468.88
2023-07-24T02:09:57.360Z,99467.19
2023-07-24T02:12:25.411Z,99465.31
2023-07-24T02:14:56.636Z,99466.16
2023-07-24T02:17:25.747Z,99460.06
2023-07-24T02:19:55.569Z,99462.59
2023-07-24T02:22:23.493Z,99451.03
2023-07-24T02:24:51.459Z,99454.63
2023-07-24T02:27:28.179Z,99451.38
2023-07-24T02:29:58.672Z,99461.97
2023-07-24T02:32:26.919Z,99465.53
2023-07-24T02:34:56.352Z,99453.63
2023-07-24T02:37:24.581Z,99466.97
2023-07-24T02:39:53.926Z,99463.09
2023-07-24T02:42:21.846Z,99469.50
2023-07-24T02:44:49.867Z,99479.56
2023-07-24T02:47:18.252Z,99484.25
2023-07-24T02:49:46.340Z,99483.72
2023-07-24T02:52:15.714Z,99482.06
2023-07-24T02:54:43.959Z,99479.53
2023-07-24T02:57:12.131Z,99479.53
2023-07-24T02:59:39.987Z,99487.50
2023-07-24T03:02:07.937Z,99492.94
2023-07-24T03:04:35.991Z,99493.25
2023-07-24T03:07:04.091Z,99491.03
2023-07-24T03:09:33.349Z,99489.56
2023-07-24T03:12:01.321Z,99478.63
2023-07-24T03:14:29.342Z,99482.91
2023-07-24T03:16:57.505Z,99487.25
2023-07-24T03:19:25.593Z,99489.88
2023-07-24T03:21:53.548Z,99495.84
2023-07-24T03:24:21.524Z,99493.31
2023-07-24T03:26:50.893Z,99491.00
2023-07-24T03:29:18.879Z,99494.66
2023-07-24T03:31:47.216Z,99492.88
2023-07-24T03:34:15.195Z,99496.44
2023-07-24T03:36:43.537Z,99498.97
2023-07-24T03:39:12.311Z,99502.41
2023-07-24T03:41:40.462Z,99502.41
2023-07-24T03:44:09.901Z,99497.47
2023-07-24T03:46:37.875Z,99504.63
2023-07-24T03:49:06.016Z,99506.19
2023-07-24T03:51:34.485Z,99510.50
2023-07-24T03:54:02.426Z,99507.78
2023-07-24T03:56:30.659Z,99499.91
2023-07-24T03:58:58.922Z,99503.56
2023-07-24T04:01:29.463Z,99511.53
2023-07-24T04:04:01.726Z,99514.16
2023-07-24T04:06:29.898Z,99519.28
2023-07-24T04:08:59.414Z,99507.88
2023-07-24T04:11:31.457Z,99507.31
2023-07-24T04:13:59.514Z,99515.50
2023-07-24T04:16:29.666Z,99506.94
2023-07-24T04:18:57.723Z,99502.84
2023-07-24T04:21:25.760Z,99508.09
2023-07-24T04:23:53.724Z,99511.34
2023-07-24T04:26:21.861Z,99509.38
2023-07-24T04:28:50.020Z,99514.47
2023-07-24T04:31:17.924Z,99510.59
2023-07-24T04:33:47.511Z,99514.03
2023-07-24T04:36:18.097Z,99506.00
2023-07-24T04:38:47.625Z,99507.38
2023-07-24T04:41:15.534Z,99512.31
2023-07-24T04:43:43.596Z,99509.78
2023-07-24T04:46:11.731Z,99506.88
2023-07-24T04:48:39.770Z,99506.66
2023-07-24T04:51:09.123Z,99505.53
2023-07-24T04:53:37.031Z,99506.81
2023-07-24T04:56:05.103Z,99506.19
2023-07-24T04:58:33.686Z,99510.59
2023-07-24T05:01:05.249Z,99506.22
2023-07-24T05:03:33.582Z,99511.72
2023-07-24T05:06:01.600Z,99508.03
2023-07-24T05:08:31.126Z,99513.78
2023-07-24T05:11:00.032Z,99519.03
2023-07-24T05:13:28.105Z,99513.38
2023-07-24T05:15:56.093Z,99512.22
2023-07-24T05:18:24.109Z,99505.94
2023-07-24T05:20:55.908Z,99505.84
2023-07-24T05:23:28.001Z,99516.00
2023-07-24T05:26:02.298Z,99501.00
2023-07-24T05:28:35.194Z,99508.78
2023-07-24T05:31:21.409Z,99508.47
2023-07-24T05:33:49.344Z,99504.47
2023-07-24T05:36:17.338Z,99506.25
2023-07-24T05:38:45.512Z,99511.81
2023-07-24T05:41:14.884Z,99516.75
2023-07-24T05:43:42.788Z,99515.81
2023-07-24T05:46:11.262Z,99516.09
2023-07-24T05:48:39.147Z,99525.53
2023-07-24T05:51:07.640Z,99524.25
2023-07-24T05:53:41.981Z,99527.09
2023-07-24T05:56:10.555Z,99531.19
2023-07-24T05:58:39.768Z,99535.06
2023-07-24T06:01:11.215Z,99532.47
2023-07-24T06:03:40.245Z,99528.50
2023-07-24T06:06:08.358Z,99534.00
2023-07-24T06:08:36.230Z,99536.47
2023-07-24T06:11:04.191Z,99535.75
2023-07-24T06:13:32.154Z,99534.38
2023-07-24T06:16:01.668Z,99528.41
2023-07-24T06:18:35.463Z,99529.78
2023-07-24T06:21:06.786Z,99528.31
2023-07-24T06:23:34.813Z,99527.25
2023-07-24T06:26:02.837Z,99530.50
2023-07-24T06:28:31.046Z,99533.13
2023-07-24T06:30:58.970Z,99526.81
2023-07-24T06:33:28.217Z,99533.97
2023-07-24T06:35:56.176Z,99533.09
2023-07-24T06:38:24.918Z,99524.06
2023-07-24T06:40:52.998Z,99534.78
2023-07-24T06:43:21.043Z,99529.75
2023-07-24T06:45:52.092Z,99523.13
2023-07-24T06:48:24.379Z,99534.63
2023-07-24T06:50:53.817Z,99530.22
2023-07-24T06:53:25.125Z,99530.72
2023-07-24T06:55:53.139Z,99529.06
2023-07-24T06:58:21.152Z,99537.06
2023-07-24T07:00:49.109Z,99531.41
2023-07-24T07:03:17.153Z,99529.00
2023-07-24T07:05:45.174Z,99526.84
2023-07-24T07:08:14.619Z,99522.75
2023-07-24T07:10:42.860Z,99514.97
2023-07-24T07:13:14.277Z,99517.00
2023-07-24T07:15:42.228Z,99527.38
2023-07-24T07:18:10.421Z,99514.06
2023-07-24T07:20:40.984Z,99514.78
2023-07-24T07:23:21.060Z,99506.31
2023-07-24T07:25:51.382Z,99512.09
2023-07-24T07:28:20.151Z,99513.38
2023-07-24T07:30:48.204Z,99518.84
2023-07-24T07:33:23.001Z,99520.34
2023-07-24T07:35:51.969Z,99520.00
2023-07-24T07:38:26.922Z,99521.09
2023-07-24T07:40:56.636Z,99511.88
2023-07-24T07:43:25.702Z,99512.69
2023-07-24T07:45:58.153Z,99498.59
2023-07-24T07:48:26.428Z,99509.44
2023-07-24T07:50:55.234Z,99501.31
2023-07-24T07:53:23.199Z,99510.13
2023-07-24T07:55:59.357Z,99519.41
2023-07-24T07:58:27.994Z,99515.44
2023-07-24T08:00:56.018Z,99511.94
2023-07-24T08:03:24.623Z,99507.72
2023-07-24T08:06:07.220Z,99510.19
2023-07-24T08:08:35.239Z,99505.16
2023-07-24T08:11:08.370Z,99504.78
2023-07-24T08:13:38.430Z,99514.78
2023-07-24T08:16:07.753Z,99517.16
2023-07-24T08:18:36.015Z,99513.63
2023-07-24T08:21:04.283Z,99515.94
2023-07-24T08:23:32.246Z,99517.16
2023-07-24T08:26:03.733Z,99511.13
2023-07-24T08:28:37.888Z,99515.63
2023-07-24T08:31:07.531Z,99504.25
2023-07-24T08:33:35.973Z,99510.34
2023-07-24T08:36:05.221Z,99496.84
2023-07-24T08:38:34.747Z,99498.63
2023-07-24T08:41:04.658Z,99492.28
2023-07-24T08:43:38.883Z,99495.28
2023-07-24T08:46:20.579Z,99495.19
2023-07-24T08:48:48.704Z,99502.44
2023-07-24T08:51:20.117Z,99497.88
2023-07-24T08:53:49.570Z,99494.22
2023-07-24T08:56:17.791Z,99495.19
2023-07-24T08:58:49.742Z,99500.03
2023-07-24T09:01:18.036Z,99490.66
2023-07-24T09:03:53.420Z,99489.91
2023-07-24T09:06:21.484Z,99501.69
2023-07-24T09:08:49.906Z,99492.03
2023-07-24T09:11:18.240Z,99491.25
2023-07-24T09:13:46.637Z,99482.41
2023-07-24T09:16:25.507Z,99473.81
2023-07-24T09:21:32.765Z,99465.22
2023-07-24T09:24:13.320Z,99467.06
2023-07-24T09:26:58.500Z,99468.47
2023-07-24T09:29:35.415Z,99462.34
2023-07-24T09:32:07.152Z,99458.28
2023-07-24T09:34:35.138Z,99461.09
2023-07-24T09:37:28.795Z,99451.38
2023-07-24T09:39:57.032Z,99464.81
2023-07-24T09:42:38.879Z,99457.69
2023-07-24T09:45:13.266Z,99450.59
2023-07-24T09:50:15.094Z,99442.66
2023-07-24T09:52:46.287Z,99434.88
2023-07-24T09:55:22.473Z,99436.44
2023-07-24T09:57:51.766Z,99439.78
2023-07-24T10:00:21.067Z,99421.56
2023-07-24T10:02:51.544Z,99423.63
2023-07-24T10:05:20.101Z,99432.13
2023-07-24T10:07:49.362Z,99419.31
2023-07-24T10:10:18.342Z,99411.13
2023-07-24T10:12:46.861Z,99411.53
2023-07-24T10:15:16.605Z,99411.66
2023-07-24T10:17:44.666Z,99399.25
2023-07-24T10:20:14.907Z,99400.09
2023-07-24T10:22:48.890Z,99406.47
2023-07-24T10:28:20.119Z,99392.28
2023-07-24T10:31:00.463Z,99397.97
2023-07-24T10:33:33.147Z,99399.78
2023-07-24T10:36:15.428Z,99390.31
2023-07-24T10:38:44.298Z,99386.69
2023-07-24T10:41:16.478Z,99372.22
2023-07-24T10:43:49.008Z,99373.50
2023-07-24T10:46:19.439Z,99372.25
2023-07-24T10:48:49.741Z,99372.25
2023-07-24T10:51:19.517Z,99369.16
2023-07-24T10:53:49.673Z,99359.25
2023-07-24T10:56:18.953Z,99354.25
2023-07-24T10:58:46.941Z,99351.16
2023-07-24T11:01:15.555Z,99351.88
2023-07-24T11:03:44.883Z,99345.34
2023-07-24T11:06:19.242Z,99354.00
2023-07-24T11:08:55.325Z,99348.88
2023-07-24T11:11:23.940Z,99347.47
2023-07-24T11:13:52.249Z,99331.22
2023-07-24T11:16:20.269Z,99332.41
2023-07-24T11:18:54.628Z,99315.31
2023-07-24T11:21:25.510Z,99311.97
2023-07-24T11:23:55.955Z,99312.19
2023-07-24T11:26:25.068Z,99303.69
2023-07-24T11:28:54.303Z,99299.38
2023-07-24T11:31:22.708Z,99305.25
2023-07-24T11:33:51.979Z,99302.56
2023-07-24T11:36:20.137Z,99305.91
2023-07-24T11:38:50.037Z,99307.56
2023-07-24T11:41:19.687Z,99302.34
2023-07-24T11:43:49.760Z,99307.63
2023-07-24T11:46:28.824Z,99298.75
2023-07-24T11:48:58.862Z,99290.03
2023-07-24T11:51:29.474Z,99285.66
2023-07-24T11:54:09.262Z,99289.78
2023-07-24T11:56:37.565Z,99289.81
2023-07-24T11:59:13.200Z,99282.84
2023-07-24T12:01:41.129Z,99279.19
2023-07-24T12:04:09.362Z,99286.44
2023-07-24T12:06:37.671Z,99293.34
2023-07-24T12:09:08.012Z,99276.59
2023-07-24T12:11:41.498Z,99279.38
2023-07-24T12:14:09.568Z,99276.28
2023-07-24T12:16:37.893Z,99266.03
2023-07-24T12:19:07.090Z,99265.88
2023-07-24T12:21:35.315Z,99262.44
2023-07-24T12:24:05.596Z,99246.53
2023-07-24T12:26:34.909Z,99243.41
2023-07-24T12:29:03.074Z,99247.75
2023-07-24T12:31:31.311Z,99246.94
2023-07-24T12:33:59.589Z,99242.41
2023-07-24T12:36:27.591Z,99235.41
2023-07-24T12:38:55.691Z,99247.53
2023-07-24T12:41:23.601Z,99235.56
2023-07-24T12:43:52.956Z,99230.41
2023-07-24T12:46:21.016Z,99220.31
2023-07-24T12:48:49.429Z,99222.44
2023-07-24T12:51:17.355Z,99223.09
2023-07-24T12:53:53.200Z,99221.94
2023-07-24T12:56:23.118Z,99213.44
2023-07-24T12:58:52.371Z,99217.09
2023-07-24T13:01:20.518Z,99207.47
2023-07-24T13:03:48.696Z,99205.00
2023-07-24T13:06:16.705Z,99200.81
2023-07-24T13:08:44.880Z,99187.41
2023-07-24T13:11:12.900Z,99188.63
2023-07-24T13:13:40.885Z,99171.03
2023-07-24T13:16:10.394Z,99175.91
2023-07-24T13:18:38.488Z,99170.72
2023-07-24T13:21:08.906Z,99160.94
2023-07-24T13:23:37.116Z,99164.06
2023-07-24T13:26:07.260Z,99165.03
2023-07-24T13:28:35.308Z,99158.38
2023-07-24T13:31:17.206Z,99151.75
2023-07-24T13:33:45.744Z,99147.59
2023-07-24T13:36:13.952Z,99156.63
2023-07-24T13:38:42.697Z,99160.47
2023-07-24T13:41:10.923Z,99155.78
2023-07-24T13:43:39.110Z,99152.75
2023-07-24T13:46:08.685Z,99154.25
2023-07-24T13:48:38.412Z,99144.19
2023-07-24T13:51:06.787Z,99135.28
2023-07-24T13:53:34.848Z,99131.63
2023-07-24T13:56:02.778Z,99130.81
2023-07-24T13:58:30.821Z,99127.00
2023-07-24T14:01:00.027Z,99112.84
2023-07-24T14:03:30.697Z,99108.06
2023-07-24T14:06:00.682Z,99096.72
2023-07-24T14:08:28.737Z,99104.38
2023-07-24T14:10:56.983Z,99101.09
2023-07-24T14:13:25.288Z,99100.47
2023-07-24T14:15:53.305Z,99086.72
2023-07-24T14:18:21.548Z,99094.34
2023-07-24T14:20:49.634Z,99085.88
2023-07-24T14:23:18.972Z,99079.91
2023-07-24T14:25:49.462Z,99093.16
2023-07-24T14:28:17.378Z,99086.66
2023-07-24T14:30:45.431Z,99077.13
2023-07-24T14:33:13.529Z,99088.63
2023-07-24T14:35:41.554Z,99081.59
2023-07-24T14:38:10.410Z,99080.25
2023-07-24T14:40:40.875Z,99076.78
2023-07-24T14:43:08.870Z,99072.13
2023-07-24T14:45:43.787Z,99067.34
2023-07-24T14:48:13.973Z,99056.63
2023-07-24T14:50:42.293Z,99054.50
2023-07-24T14:53:10.731Z,99051.56
2023-07-24T14:55:40.901Z,99060.16
2023-07-24T14:58:09.088Z,99049.03
2023-07-24T15:00:37.257Z,99044.88
2023-07-24T15:03:05.876Z,99039.56
2023-07-24T15:05:34.566Z,99034.97
2023-07-24T15:08:03.079Z,99040.09
2023-07-24T15:10:37.505Z,99037.31
2023-07-24T15:13:07.028Z,99035.47
2023-07-24T15:15:35.174Z,99032.53
2023-07-24T15:18:04.231Z,99038.97
2023-07-24T15:20:32.304Z,99035.66
2023-07-24T15:23:00.978Z,99032.00
2023-07-24T15:25:29.276Z,99033.03
2023-07-24T15:27:58.673Z,99021.84
2023-07-24T15:30:29.771Z,99025.91
2023-07-24T15:32:58.004Z,99025.97
2023-07-24T15:35:26.135Z,99018.38
2023-07-24T15:37:54.304Z,99020.56
2023-07-24T15:40:22.286Z,99022.38
2023-07-24T15:42:51.576Z,99006.09
2023-07-24T15:45:22.139Z,99002.78
2023-07-24T15:47:51.460Z,99002.09
2023-07-24T15:50:19.818Z,98996.16
2023-07-24T15:52:51.592Z,98994.63
2023-07-24T15:55:19.776Z,98988.13
2023-07-24T15:57:50.050Z,98996.56
2023-07-24T16:00:18.423Z,98994.56
2023-07-24T16:02:47.723Z,98994.72
2023-07-24T16:05:28.514Z,98990.03
2023-07-24T16:08:02.043Z,98978.72
2023-07-24T16:10:30.373Z,98989.94
2023-07-24T16:12:58.425Z,98982.97
2023-07-24T16:20:30.263Z,98972.38
2023-07-24T16:22:58.440Z,98965.41
2023-07-24T16:25:28.357Z,98969.88
2023-07-24T16:28:00.088Z,98964.06
2023-07-24T16:30:29.233Z,98957.78
2023-07-24T16:33:00.483Z,98949.16
2023-07-24T16:35:30.568Z,98950.16
2023-07-24T16:37:58.468Z,98943.19
2023-07-24T16:40:27.102Z,98936.22
2023-07-24T16:43:00.473Z,98937.91
2023-07-24T16:45:37.082Z,98931.75
2023-07-24T16:48:08.466Z,98931.75
2023-07-24T16:50:40.774Z,98926.63
2023-07-24T16:53:14.726Z,98922.00
2023-07-24T16:55:43.298Z,98922.31
2023-07-24T16:58:11.325Z,98915.69
2023-07-24T17:00:40.390Z,98911.53
2023-07-24T17:03:08.466Z,98919.78
2023-07-24T17:05:37.924Z,98923.91
2023-07-24T17:08:06.470Z,98922.69
2023-07-24T17:10:44.524Z,98919.53
2023-07-24T17:13:12.635Z,98912.88
2023-07-24T17:15:40.904Z,98904.59
2023-07-24T17:18:08.882Z,98909.75
2023-07-24T17:20:39.440Z,98917.00
2023-07-24T17:23:07.453Z,98906.78
2023-07-24T17:25:37.332Z,98903.78
2023-07-24T17:28:05.650Z,98900.63
2023-07-24T17:30:33.685Z,98901.75
2023-07-24T17:33:04.022Z,98896.91
2023-07-24T17:35:32.243Z,98889.97
2023-07-24T17:38:01.630Z,98893.59
2023-07-24T17:40:29.605Z,98890.41
2023-07-24T17:42:57.488Z,98885.94
2023-07-24T17:45:25.584Z,98888.06
2023-07-24T17:47:53.640Z,98887.53
2023-07-24T17:50:22.853Z,98887.88
2023-07-24T17:52:50.901Z,98888.16
2023-07-24T17:55:20.517Z,98884.53
2023-07-24T17:57:54.225Z,98878.72
2023-07-24T18:00:23.937Z,98886.78
2023-07-24T18:02:51.968Z,98885.09
2023-07-24T18:05:21.151Z,98884.44
2023-07-24T18:07:52.198Z,98883.91
2023-07-24T18:10:22.602Z,98882.09
2023-07-24T18:12:51.021Z,98880.44
2023-07-24T18:15:19.014Z,98880.56
2023-07-24T18:17:47.176Z,98883.38
2023-07-24T18:20:15.793Z,98875.59
2023-07-24T18:22:44.030Z,98879.38
2023-07-24T18:25:13.089Z,98881.63
2023-07-24T18:27:42.644Z,98869.63
2023-07-24T18:30:10.725Z,98868.94
2023-07-24T18:32:39.261Z,98871.19
2023-07-24T18:35:07.851Z,98868.72
2023-07-24T18:37:35.839Z,98871.81
2023-07-24T18:40:03.968Z,98870.41
2023-07-24T18:42:50.694Z,98870.75
2023-07-24T18:45:20.331Z,98869.22
2023-07-24T18:47:48.454Z,98868.53
2023-07-24T18:50:34.103Z,98869.66
2023-07-24T18:53:11.830Z,98866.06
2023-07-24T18:55:41.489Z,98875.78
2023-07-24T18:58:09.584Z,98877.75
2023-07-24T19:00:39.009Z,98885.69
2023-07-24T19:03:07.106Z,98881.91
2023-07-24T19:05:35.641Z,98881.91
2023-07-24T19:08:05.855Z,98867.19
2023-07-24T19:10:35.040Z,98864.97
2023-07-24T19:13:03.254Z,98870.03
2023-07-24T19:15:32.392Z,98866.00
2023-07-24T19:18:03.154Z,98850.88
2023-07-24T19:20:36.031Z,98852.03
2023-07-24T19:23:05.089Z,98853.44
2023-07-24T19:25:40.399Z,98852.06
2023-07-24T19:28:19.694Z,98854.31
2023-07-24T19:30:52.989Z,98851.56
2023-07-24T19:33:24.733Z,98869.47
2023-07-24T19:36:02.061Z,98862.44
2023-07-24T19:38:30.172Z,98864.78
2023-07-24T19:41:01.275Z,98859.94
2023-07-24T19:43:29.942Z,98859.53
2023-07-24T19:45:58.485Z,98865.09
2023-07-24T19:48:28.303Z,98866.22
2023-07-24T19:50:57.925Z,98858.59
2023-07-24T19:53:27.585Z,98859.69
2023-07-24T19:56:00.650Z,98864.56
2023-07-24T19:58:33.545Z,98864.72
2023-07-24T20:01:02.348Z,98867.75
2023-07-24T20:03:32.435Z,98866.53
2023-07-24T20:06:06.381Z,98865.28
2023-07-24T20:08:37.810Z,98860.59
2023-07-24T20:11:08.835Z,98867.78
2023-07-24T20:13:39.424Z,98873.34
2023-07-24T20:16:08.656Z,98863.38
2023-07-24T20:18:38.746Z,98864.31
2023-07-24T20:21:07.492Z,98856.41
2023-07-24T20:23:38.074Z,98853.19
2023-07-24T20:26:06.400Z,98850.00
2023-07-24T20:28:34.862Z,98845.84
2023-07-24T20:31:04.180Z,98844.47
2023-07-24T20:33:38.758Z,98843.91
2023-07-24T20:36:08.560Z,98857.47
2023-07-24T20:38:37.209Z,98852.78
2023-07-24T20:41:06.119Z,98855.69
2023-07-24T20:43:34.053Z,98856.09
2023-07-24T20:46:11.169Z,98844.72
2023-07-24T20:48:41.843Z,98843.63
2023-07-24T20:51:16.860Z,98848.31
2023-07-24T20:53:45.072Z,98848.31
2023-07-24T20:56:14.015Z,98837.22
2023-07-24T20:58:43.130Z,98839.56
2023-07-24T21:01:11.502Z,98825.56
2023-07-24T21:03:39.429Z,98824.03
2023-07-24T21:06:20.362Z,98822.38
2023-07-24T21:08:50.557Z,98828.88
2023-07-24T21:11:18.942Z,98826.38
2023-07-24T21:13:47.285Z,98820.66
2023-07-24T21:16:20.462Z,98823.56
2023-07-24T21:18:48.638Z,98817.72
2023-07-24T21:21:19.729Z,98826.03
2023-07-24T21:23:47.785Z,98820.78
2023-07-24T21:26:16.880Z,98808.00
2023-07-24T21:28:45.075Z,98818.97
2023-07-24T21:31:14.157Z,98826.16
2023-07-24T21:33:42.726Z,98827.97
2023-07-24T21:36:10.714Z,98830.75
2023-07-24T21:38:41.305Z,98824.06
2023-07-24T21:41:12.048Z,98830.59
2023-07-24T21:43:40.171Z,98819.34
2023-07-24T21:46:08.252Z,98807.16
2023-07-24T21:48:36.198Z,98799.53
2023-07-24T21:51:07.562Z,98806.72
2023-07-24T21:53:37.626Z,98807.25
2023-07-24T21:56:07.627Z,98798.50
2023-07-24T21:58:35.701Z,98799.47
2023-07-24T22:01:03.830Z,98794.19
2023-07-24T22:03:32.057Z,98802.09
2023-07-24T22:06:00.039Z,98804.84
2023-07-24T22:08:28.069Z,98802.63
2023-07-24T22:10:55.978Z,98796.06
2023-07-24T22:13:25.438Z,98800.06
2023-07-24T22:15:53.541Z,98797.25
2023-07-24T22:18:21.493Z,98790.97
2023-07-24T22:20:49.428Z,98781.81
2023-07-24T22:23:17.298Z,98787.91
2023-07-24T22:25:45.357Z,98782.78
2023-07-24T22:28:13.626Z,98785.66
2023-07-24T22:30:42.990Z,98790.22
2023-07-24T22:33:11.099Z,98792.41
2023-07-24T22:35:39.160Z,98795.28
2023-07-24T22:38:07.502Z,98793.88
2023-07-24T22:40:35.611Z,98781.72
2023-07-24T22:43:03.600Z,98790.44
2023-07-24T22:45:34.454Z,98787.91
2023-07-24T22:48:03.957Z,98800.13
2023-07-24T22:50:32.040Z,98803.94
2023-07-24T22:52:59.943Z,98796.19
2023-07-24T22:55:28.006Z,98792.00
2023-07-24T22:57:57.790Z,98796.44
2023-07-24T23:00:26.027Z,98800.88
2023-07-24T23:02:54.029Z,98798.63
2023-07-24T23:05:23.411Z,98791.97
2023-07-24T23:07:54.267Z,98788.75
2023-07-24T23:10:22.502Z,98789.00
2023-07-24T23:12:50.504Z,98779.59
2023-07-24T23:15:18.631Z,98779.47
2023-07-24T23:17:46.634Z,98775.88
2023-07-24T23:20:14.945Z,98777.53
2023-07-24T23:22:44.245Z,98773.94
2023-07-24T23:25:14.795Z,98767.84
2023-07-24T23:27:42.734Z,98766.19
2023-07-24T23:30:11.411Z,98766.44
2023-07-24T23:32:39.593Z,98760.38
2023-07-24T23:35:08.994Z,98748.88
2023-07-24T23:37:37.283Z,98747.94
2023-07-24T23:40:07.808Z,98749.34
2023-07-24T23:42:35.770Z,98744.09
2023-07-24T23:45:03.958Z,98745.75
2023-07-24T23:47:32.876Z,98744.09
2023-07-24T23:50:01.112Z,98738.84
2023-07-24T23:52:29.701Z,98736.31
2023-07-24T23:54:57.603Z,98742.69
2023-07-24T23:57:31.778Z,98750.69
